Sandberg, California
Current Conditions -  °F | °C
As of 3:48 AM on Monday 24 Nov 2014 (Local Time) from KSDB Reporting Station
Clear Clear  
Wind Chill:   Ceiling: Unl
Heat Index:   Visibility: 10mi
Dew Point: -6°   Wind: 12mph
Humidity: 47%   Direction: 30°NNE
Pressure: 30.26"   Gusts: NA
Location:  34.6849°N, 118.558°W
Report Text: KSDB 241148Z AUTO 03010KT 10SM CLR 05/M06 A3026 RMK AO2 SLP228 70001 T00501056 10089 20050 56005 $
Loading
Personal Weather Stations






























Interactive Weather Map New forecast layout! Learn more

10-Day Weather Forecast

Advertisements
Track Severe Weather on mobile